sensor_id;sensor_type;location;lat;lon;timestamp;P1;durP1;ratioP1;P2;durP2;ratioP2
45198;SDS011;30941;46.422;18.772;2023-04-24T00:00:36;12.63;;;7.47;;
45198;SDS011;30941;46.422;18.772;2023-04-24T00:03:03;8.40;;;7.13;;
45198;SDS011;30941;46.422;18.772;2023-04-24T00:05:28;13.15;;;8.10;;
45198;SDS011;30941;46.422;18.772;2023-04-24T00:07:54;9.23;;;6.35;;
45198;SDS011;30941;46.422;18.772;2023-04-24T00:10:20;9.85;;;6.70;;
45198;SDS011;30941;46.422;18.772;2023-04-24T00:12:46;16.58;;;7.03;;
45198;SDS011;30941;46.422;18.772;2023-04-24T00:15:12;12.77;;;8.05;;
45198;SDS011;30941;46.422;18.772;2023-04-24T00:17:37;10.55;;;6.40;;
45198;SDS011;30941;46.422;18.772;2023-04-24T00:20:03;10.70;;;6.38;;
45198;SDS011;30941;46.422;18.772;2023-04-24T00:22:29;10.85;;;6.80;;
45198;SDS011;30941;46.422;18.772;2023-04-24T00:24:55;11.38;;;7.50;;
45198;SDS011;30941;46.422;18.772;2023-04-24T00:27:21;11.32;;;7.22;;
45198;SDS011;30941;46.422;18.772;2023-04-24T00:29:46;11.13;;;6.57;;
45198;SDS011;30941;46.422;18.772;2023-04-24T00:32:12;14.35;;;7.50;;
45198;SDS011;30941;46.422;18.772;2023-04-24T00:34:37;12.88;;;7.88;;
45198;SDS011;30941;46.422;18.772;2023-04-24T00:37:03;10.50;;;6.75;;
45198;SDS011;30941;46.422;18.772;2023-04-24T00:39:28;12.88;;;7.68;;
45198;SDS011;30941;46.422;18.772;2023-04-24T00:41:54;10.40;;;7.22;;
45198;SDS011;30941;46.422;18.772;2023-04-24T00:44:20;13.25;;;8.07;;
45198;SDS011;30941;46.422;18.772;2023-04-24T00:46:45;12.05;;;7.25;;
45198;SDS011;30941;46.422;18.772;2023-04-24T00:49:12;11.65;;;8.00;;
45198;SDS011;30941;46.422;18.772;2023-04-24T00:51:38;12.32;;;7.90;;
45198;SDS011;30941;46.422;18.772;2023-04-24T00:54:05;13.85;;;7.25;;
45198;SDS011;30941;46.422;18.772;2023-04-24T00:56:31;11.65;;;7.68;;
45198;SDS011;30941;46.422;18.772;2023-04-24T00:58:56;10.82;;;8.45;;
45198;SDS011;30941;46.422;18.772;2023-04-24T01:01:22;14.18;;;8.63;;
45198;SDS011;30941;46.422;18.772;2023-04-24T01:03:51;11.98;;;8.43;;
45198;SDS011;30941;46.422;18.772;2023-04-24T01:06:16;11.98;;;8.15;;
45198;SDS011;30941;46.422;18.772;2023-04-24T01:08:43;14.32;;;7.88;;
45198;SDS011;30941;46.422;18.772;2023-04-24T01:11:10;12.20;;;8.75;;
45198;SDS011;30941;46.422;18.772;2023-04-24T01:13:36;12.65;;;8.63;;
45198;SDS011;30941;46.422;18.772;2023-04-24T01:16:01;10.60;;;7.53;;
45198;SDS011;30941;46.422;18.772;2023-04-24T01:18:27;10.27;;;7.70;;
45198;SDS011;30941;46.422;18.772;2023-04-24T01:20:53;12.70;;;8.23;;
45198;SDS011;30941;46.422;18.772;2023-04-24T01:23:22;16.65;;;9.43;;
45198;SDS011;30941;46.422;18.772;2023-04-24T01:25:48;13.32;;;8.60;;
45198;SDS011;30941;46.422;18.772;2023-04-24T01:28:15;12.18;;;8.52;;
45198;SDS011;30941;46.422;18.772;2023-04-24T01:30:41;15.80;;;8.77;;
45198;SDS011;30941;46.422;18.772;2023-04-24T01:33:06;13.73;;;8.63;;
45198;SDS011;30941;46.422;18.772;2023-04-24T01:35:32;12.27;;;9.30;;
45198;SDS011;30941;46.422;18.772;2023-04-24T01:37:57;14.88;;;9.93;;
45198;SDS011;30941;46.422;18.772;2023-04-24T01:40:23;13.15;;;9.88;;
45198;SDS011;30941;46.422;18.772;2023-04-24T01:42:48;13.60;;;8.93;;
45198;SDS011;30941;46.422;18.772;2023-04-24T01:45:14;11.30;;;9.27;;
45198;SDS011;30941;46.422;18.772;2023-04-24T01:47:39;14.68;;;9.80;;
45198;SDS011;30941;46.422;18.772;2023-04-24T01:50:05;16.50;;;10.27;;
45198;SDS011;30941;46.422;18.772;2023-04-24T01:52:31;17.55;;;10.07;;
45198;SDS011;30941;46.422;18.772;2023-04-24T01:55:01;19.45;;;10.35;;
45198;SDS011;30941;46.422;18.772;2023-04-24T01:57:30;15.48;;;10.27;;
45198;SDS011;30941;46.422;18.772;2023-04-24T01:59:56;16.00;;;10.40;;
45198;SDS011;30941;46.422;18.772;2023-04-24T02:02:22;19.65;;;10.82;;
45198;SDS011;30941;46.422;18.772;2023-04-24T02:04:49;16.45;;;11.45;;
45198;SDS011;30941;46.422;18.772;2023-04-24T02:07:17;15.30;;;11.65;;
45198;SDS011;30941;46.422;18.772;2023-04-24T02:09:43;17.10;;;11.20;;
45198;SDS011;30941;46.422;18.772;2023-04-24T02:12:08;15.85;;;11.25;;
45198;SDS011;30941;46.422;18.772;2023-04-24T02:14:33;14.70;;;11.05;;
45198;SDS011;30941;46.422;18.772;2023-04-24T02:16:59;20.23;;;11.13;;
45198;SDS011;30941;46.422;18.772;2023-04-24T02:19:25;17.17;;;12.50;;
45198;SDS011;30941;46.422;18.772;2023-04-24T02:21:51;16.25;;;11.32;;
45198;SDS011;30941;46.422;18.772;2023-04-24T02:24:16;20.50;;;11.63;;
45198;SDS011;30941;46.422;18.772;2023-04-24T02:26:42;16.10;;;12.07;;
45198;SDS011;30941;46.422;18.772;2023-04-24T02:29:07;19.15;;;12.05;;
45198;SDS011;30941;46.422;18.772;2023-04-24T02:31:32;21.02;;;11.00;;
45198;SDS011;30941;46.422;18.772;2023-04-24T02:33:58;17.83;;;11.20;;
45198;SDS011;30941;46.422;18.772;2023-04-24T02:36:24;17.27;;;12.57;;
45198;SDS011;30941;46.422;18.772;2023-04-24T02:38:50;13.30;;;11.13;;
45198;SDS011;30941;46.422;18.772;2023-04-24T02:41:15;16.23;;;12.18;;
45198;SDS011;30941;46.422;18.772;2023-04-24T02:43:40;16.83;;;12.20;;
45198;SDS011;30941;46.422;18.772;2023-04-24T02:46:06;18.38;;;12.15;;
45198;SDS011;30941;46.422;18.772;2023-04-24T02:48:31;17.27;;;12.60;;
45198;SDS011;30941;46.422;18.772;2023-04-24T02:50:56;15.20;;;12.35;;
45198;SDS011;30941;46.422;18.772;2023-04-24T02:53:22;25.52;;;13.95;;
45198;SDS011;30941;46.422;18.772;2023-04-24T02:55:48;17.48;;;12.63;;
45198;SDS011;30941;46.422;18.772;2023-04-24T02:58:13;16.73;;;11.65;;
45198;SDS011;30941;46.422;18.772;2023-04-24T03:00:39;18.05;;;12.52;;
45198;SDS011;30941;46.422;18.772;2023-04-24T03:03:04;18.13;;;12.80;;
45198;SDS011;30941;46.422;18.772;2023-04-24T03:05:30;17.13;;;12.60;;
45198;SDS011;30941;46.422;18.772;2023-04-24T03:07:56;16.73;;;13.13;;
45198;SDS011;30941;46.422;18.772;2023-04-24T03:10:21;20.13;;;13.18;;
45198;SDS011;30941;46.422;18.772;2023-04-24T03:12:49;23.25;;;13.02;;
45198;SDS011;30941;46.422;18.772;2023-04-24T03:15:14;17.48;;;12.48;;
45198;SDS011;30941;46.422;18.772;2023-04-24T03:17:40;20.10;;;14.20;;
45198;SDS011;30941;46.422;18.772;2023-04-24T03:20:06;19.38;;;13.18;;
45198;SDS011;30941;46.422;18.772;2023-04-24T03:22:33;16.13;;;12.65;;
45198;SDS011;30941;46.422;18.772;2023-04-24T03:24:59;17.23;;;12.57;;
45198;SDS011;30941;46.422;18.772;2023-04-24T03:27:24;18.25;;;12.98;;
45198;SDS011;30941;46.422;18.772;2023-04-24T03:29:50;18.13;;;12.93;;
45198;SDS011;30941;46.422;18.772;2023-04-24T03:32:20;22.67;;;12.95;;
45198;SDS011;30941;46.422;18.772;2023-04-24T03:34:47;23.00;;;15.85;;
45198;SDS011;30941;46.422;18.772;2023-04-24T03:37:13;21.88;;;14.20;;
45198;SDS011;30941;46.422;18.772;2023-04-24T03:39:38;19.58;;;13.18;;
45198;SDS011;30941;46.422;18.772;2023-04-24T03:42:03;21.10;;;14.15;;
45198;SDS011;30941;46.422;18.772;2023-04-24T03:44:29;18.30;;;13.57;;
45198;SDS011;30941;46.422;18.772;2023-04-24T03:46:54;20.90;;;14.57;;
45198;SDS011;30941;46.422;18.772;2023-04-24T03:49:20;21.35;;;13.85;;
45198;SDS011;30941;46.422;18.772;2023-04-24T03:51:45;22.75;;;13.73;;
45198;SDS011;30941;46.422;18.772;2023-04-24T03:54:11;23.02;;;13.55;;
45198;SDS011;30941;46.422;18.772;2023-04-24T03:56:36;17.95;;;13.27;;
45198;SDS011;30941;46.422;18.772;2023-04-24T03:59:01;20.15;;;12.57;;
45198;SDS011;30941;46.422;18.772;2023-04-24T04:01:27;22.08;;;13.57;;
45198;SDS011;30941;46.422;18.772;2023-04-24T04:03:53;15.95;;;12.45;;
45198;SDS011;30941;46.422;18.772;2023-04-24T04:06:18;20.70;;;12.55;;
45198;SDS011;30941;46.422;18.772;2023-04-24T04:08:44;23.63;;;13.13;;
45198;SDS011;30941;46.422;18.772;2023-04-24T04:11:09;17.63;;;12.90;;
45198;SDS011;30941;46.422;18.772;2023-04-24T04:13:35;18.65;;;13.80;;
45198;SDS011;30941;46.422;18.772;2023-04-24T04:16:00;20.65;;;13.27;;
45198;SDS011;30941;46.422;18.772;2023-04-24T04:18:25;21.92;;;13.00;;
45198;SDS011;30941;46.422;18.772;2023-04-24T04:20:51;22.23;;;13.80;;
45198;SDS011;30941;46.422;18.772;2023-04-24T04:23:16;20.88;;;12.95;;
45198;SDS011;30941;46.422;18.772;2023-04-24T04:25:42;17.00;;;13.38;;
45198;SDS011;30941;46.422;18.772;2023-04-24T04:28:07;18.75;;;13.13;;
45198;SDS011;30941;46.422;18.772;2023-04-24T04:30:32;16.40;;;13.15;;
45198;SDS011;30941;46.422;18.772;2023-04-24T04:32:58;16.75;;;13.07;;
45198;SDS011;30941;46.422;18.772;2023-04-24T04:35:24;18.10;;;13.10;;
45198;SDS011;30941;46.422;18.772;2023-04-24T04:37:50;18.83;;;13.13;;
45198;SDS011;30941;46.422;18.772;2023-04-24T04:40:16;21.35;;;14.75;;
45198;SDS011;30941;46.422;18.772;2023-04-24T04:42:42;17.60;;;12.18;;
45198;SDS011;30941;46.422;18.772;2023-04-24T04:45:10;19.13;;;13.45;;
45198;SDS011;30941;46.422;18.772;2023-04-24T04:47:36;19.10;;;13.45;;
45198;SDS011;30941;46.422;18.772;2023-04-24T04:50:02;19.77;;;13.15;;
45198;SDS011;30941;46.422;18.772;2023-04-24T04:52:28;24.15;;;12.70;;
45198;SDS011;30941;46.422;18.772;2023-04-24T04:54:54;19.83;;;13.18;;
45198;SDS011;30941;46.422;18.772;2023-04-24T04:57:20;18.75;;;13.00;;
45198;SDS011;30941;46.422;18.772;2023-04-24T04:59:45;23.85;;;13.63;;
45198;SDS011;30941;46.422;18.772;2023-04-24T05:02:11;27.65;;;13.48;;
45198;SDS011;30941;46.422;18.772;2023-04-24T05:04:36;20.73;;;13.77;;
45198;SDS011;30941;46.422;18.772;2023-04-24T05:07:02;17.75;;;12.73;;
45198;SDS011;30941;46.422;18.772;2023-04-24T05:09:27;18.55;;;13.75;;
45198;SDS011;30941;46.422;18.772;2023-04-24T05:11:54;22.33;;;14.88;;
45198;SDS011;30941;46.422;18.772;2023-04-24T05:14:20;19.00;;;13.50;;
45198;SDS011;30941;46.422;18.772;2023-04-24T05:16:45;20.95;;;14.00;;
45198;SDS011;30941;46.422;18.772;2023-04-24T05:19:11;24.10;;;13.40;;
45198;SDS011;30941;46.422;18.772;2023-04-24T05:21:38;20.20;;;14.20;;
45198;SDS011;30941;46.422;18.772;2023-04-24T05:24:04;19.90;;;14.88;;
45198;SDS011;30941;46.422;18.772;2023-04-24T05:26:30;20.92;;;13.82;;
45198;SDS011;30941;46.422;18.772;2023-04-24T05:28:55;20.55;;;13.45;;
45198;SDS011;30941;46.422;18.772;2023-04-24T05:31:20;21.63;;;13.73;;
45198;SDS011;30941;46.422;18.772;2023-04-24T05:33:46;21.15;;;14.20;;
45198;SDS011;30941;46.422;18.772;2023-04-24T05:36:11;22.42;;;14.35;;
45198;SDS011;30941;46.422;18.772;2023-04-24T05:38:37;20.35;;;12.98;;
45198;SDS011;30941;46.422;18.772;2023-04-24T05:41:02;20.77;;;15.35;;
45198;SDS011;30941;46.422;18.772;2023-04-24T05:43:27;18.25;;;13.52;;
45198;SDS011;30941;46.422;18.772;2023-04-24T05:45:53;25.00;;;14.40;;
45198;SDS011;30941;46.422;18.772;2023-04-24T05:48:18;18.27;;;13.77;;
45198;SDS011;30941;46.422;18.772;2023-04-24T05:50:44;16.90;;;14.02;;
45198;SDS011;30941;46.422;18.772;2023-04-24T05:53:09;23.30;;;15.38;;
45198;SDS011;30941;46.422;18.772;2023-04-24T05:55:35;24.30;;;14.45;;
45198;SDS011;30941;46.422;18.772;2023-04-24T05:58:01;20.58;;;14.95;;
45198;SDS011;30941;46.422;18.772;2023-04-24T06:00:26;22.83;;;14.50;;
45198;SDS011;30941;46.422;18.772;2023-04-24T06:02:52;21.70;;;14.65;;
45198;SDS011;30941;46.422;18.772;2023-04-24T06:05:17;23.58;;;15.80;;
45198;SDS011;30941;46.422;18.772;2023-04-24T06:07:43;22.20;;;14.23;;
45198;SDS011;30941;46.422;18.772;2023-04-24T06:10:08;18.95;;;14.88;;
45198;SDS011;30941;46.422;18.772;2023-04-24T06:12:35;21.75;;;14.13;;
45198;SDS011;30941;46.422;18.772;2023-04-24T06:15:01;22.08;;;14.88;;
45198;SDS011;30941;46.422;18.772;2023-04-24T06:17:27;19.63;;;15.27;;
45198;SDS011;30941;46.422;18.772;2023-04-24T06:19:52;20.70;;;14.63;;
45198;SDS011;30941;46.422;18.772;2023-04-24T06:22:18;18.95;;;14.23;;
45198;SDS011;30941;46.422;18.772;2023-04-24T06:24:43;17.75;;;13.82;;
45198;SDS011;30941;46.422;18.772;2023-04-24T06:27:08;23.00;;;14.10;;
45198;SDS011;30941;46.422;18.772;2023-04-24T06:29:34;19.67;;;15.38;;
45198;SDS011;30941;46.422;18.772;2023-04-24T06:32:01;19.00;;;13.88;;
45198;SDS011;30941;46.422;18.772;2023-04-24T06:34:26;19.60;;;14.55;;
45198;SDS011;30941;46.422;18.772;2023-04-24T06:36:51;21.92;;;14.70;;
45198;SDS011;30941;46.422;18.772;2023-04-24T06:39:17;21.52;;;16.75;;
45198;SDS011;30941;46.422;18.772;2023-04-24T06:41:42;21.13;;;15.18;;
45198;SDS011;30941;46.422;18.772;2023-04-24T06:44:07;21.38;;;15.73;;
45198;SDS011;30941;46.422;18.772;2023-04-24T06:46:33;20.50;;;14.73;;
45198;SDS011;30941;46.422;18.772;2023-04-24T06:48:59;21.48;;;14.75;;
45198;SDS011;30941;46.422;18.772;2023-04-24T06:51:25;23.67;;;16.05;;
45198;SDS011;30941;46.422;18.772;2023-04-24T06:53:52;21.90;;;15.20;;
45198;SDS011;30941;46.422;18.772;2023-04-24T06:56:18;22.20;;;15.63;;
45198;SDS011;30941;46.422;18.772;2023-04-24T06:58:43;22.35;;;15.77;;
45198;SDS011;30941;46.422;18.772;2023-04-24T07:01:10;22.90;;;16.20;;
45198;SDS011;30941;46.422;18.772;2023-04-24T07:03:35;19.73;;;15.98;;
45198;SDS011;30941;46.422;18.772;2023-04-24T07:06:01;25.40;;;18.35;;
45198;SDS011;30941;46.422;18.772;2023-04-24T07:08:28;24.00;;;17.15;;
45198;SDS011;30941;46.422;18.772;2023-04-24T07:10:55;24.50;;;17.00;;
45198;SDS011;30941;46.422;18.772;2023-04-24T07:13:21;23.33;;;18.25;;
45198;SDS011;30941;46.422;18.772;2023-04-24T07:15:47;22.33;;;17.90;;
45198;SDS011;30941;46.422;18.772;2023-04-24T07:18:15;23.98;;;18.58;;
45198;SDS011;30941;46.422;18.772;2023-04-24T07:20:40;30.90;;;19.67;;
45198;SDS011;30941;46.422;18.772;2023-04-24T07:23:06;24.58;;;19.63;;
45198;SDS011;30941;46.422;18.772;2023-04-24T07:25:31;34.25;;;21.60;;
45198;SDS011;30941;46.422;18.772;2023-04-24T07:27:57;27.90;;;22.35;;
45198;SDS011;30941;46.422;18.772;2023-04-24T07:30:22;28.35;;;22.75;;
45198;SDS011;30941;46.422;18.772;2023-04-24T07:32:47;31.27;;;24.00;;
45198;SDS011;30941;46.422;18.772;2023-04-24T07:35:13;35.10;;;25.17;;
45198;SDS011;30941;46.422;18.772;2023-04-24T07:37:38;29.83;;;24.60;;
45198;SDS011;30941;46.422;18.772;2023-04-24T07:40:04;34.38;;;22.67;;
45198;SDS011;30941;46.422;18.772;2023-04-24T07:42:30;32.17;;;23.08;;
45198;SDS011;30941;46.422;18.772;2023-04-24T07:44:55;29.52;;;23.13;;
45198;SDS011;30941;46.422;18.772;2023-04-24T07:47:21;26.38;;;19.85;;
45198;SDS011;30941;46.422;18.772;2023-04-24T07:49:47;24.08;;;19.60;;
45198;SDS011;30941;46.422;18.772;2023-04-24T07:52:12;24.13;;;20.08;;
45198;SDS011;30941;46.422;18.772;2023-04-24T07:54:37;30.00;;;20.65;;
45198;SDS011;30941;46.422;18.772;2023-04-24T07:57:03;32.83;;;21.80;;
45198;SDS011;30941;46.422;18.772;2023-04-24T07:59:29;31.58;;;22.08;;
45198;SDS011;30941;46.422;18.772;2023-04-24T08:01:54;32.55;;;21.95;;
45198;SDS011;30941;46.422;18.772;2023-04-24T08:04:20;31.23;;;22.00;;
45198;SDS011;30941;46.422;18.772;2023-04-24T08:06:47;31.60;;;22.92;;
45198;SDS011;30941;46.422;18.772;2023-04-24T08:09:12;30.08;;;22.95;;
45198;SDS011;30941;46.422;18.772;2023-04-24T08:11:38;30.70;;;22.95;;
45198;SDS011;30941;46.422;18.772;2023-04-24T08:14:03;29.55;;;21.45;;
45198;SDS011;30941;46.422;18.772;2023-04-24T08:16:28;24.48;;;18.95;;
45198;SDS011;30941;46.422;18.772;2023-04-24T08:18:54;22.15;;;18.38;;
45198;SDS011;30941;46.422;18.772;2023-04-24T08:21:19;23.27;;;16.85;;
45198;SDS011;30941;46.422;18.772;2023-04-24T08:23:45;21.73;;;17.50;;
45198;SDS011;30941;46.422;18.772;2023-04-24T08:26:11;26.20;;;16.85;;
45198;SDS011;30941;46.422;18.772;2023-04-24T08:28:37;22.10;;;17.63;;
45198;SDS011;30941;46.422;18.772;2023-04-24T08:31:03;21.77;;;15.57;;
45198;SDS011;30941;46.422;18.772;2023-04-24T08:33:29;22.65;;;16.80;;
45198;SDS011;30941;46.422;18.772;2023-04-24T08:36:03;24.77;;;16.13;;
45198;SDS011;30941;46.422;18.772;2023-04-24T08:38:29;18.27;;;15.43;;
45198;SDS011;30941;46.422;18.772;2023-04-24T08:40:54;22.55;;;16.88;;
45198;SDS011;30941;46.422;18.772;2023-04-24T08:43:21;19.83;;;15.82;;
45198;SDS011;30941;46.422;18.772;2023-04-24T08:45:47;23.50;;;15.40;;
45198;SDS011;30941;46.422;18.772;2023-04-24T08:48:12;19.90;;;15.30;;
45198;SDS011;30941;46.422;18.772;2023-04-24T08:50:38;19.63;;;15.55;;
45198;SDS011;30941;46.422;18.772;2023-04-24T08:53:07;26.58;;;16.40;;
45198;SDS011;30941;46.422;18.772;2023-04-24T08:55:33;18.75;;;14.93;;
45198;SDS011;30941;46.422;18.772;2023-04-24T08:58:00;20.92;;;15.40;;
45198;SDS011;30941;46.422;18.772;2023-04-24T09:00:26;19.58;;;14.93;;
45198;SDS011;30941;46.422;18.772;2023-04-24T09:02:52;19.35;;;15.65;;
45198;SDS011;30941;46.422;18.772;2023-04-24T09:05:18;24.98;;;16.40;;
45198;SDS011;30941;46.422;18.772;2023-04-24T09:07:49;22.67;;;15.38;;
45198;SDS011;30941;46.422;18.772;2023-04-24T09:10:19;19.70;;;15.02;;
45198;SDS011;30941;46.422;18.772;2023-04-24T09:12:45;19.08;;;14.45;;
45198;SDS011;30941;46.422;18.772;2023-04-24T09:15:11;19.70;;;14.38;;
45198;SDS011;30941;46.422;18.772;2023-04-24T09:17:37;18.75;;;14.60;;
45198;SDS011;30941;46.422;18.772;2023-04-24T09:20:03;18.60;;;14.43;;
45198;SDS011;30941;46.422;18.772;2023-04-24T09:22:29;19.88;;;14.23;;
45198;SDS011;30941;46.422;18.772;2023-04-24T09:25:05;17.95;;;13.05;;
45198;SDS011;30941;46.422;18.772;2023-04-24T09:27:32;16.92;;;12.65;;
45198;SDS011;30941;46.422;18.772;2023-04-24T09:29:58;15.43;;;11.27;;
45198;SDS011;30941;46.422;18.772;2023-04-24T09:32:24;13.73;;;9.13;;
45198;SDS011;30941;46.422;18.772;2023-04-24T09:35:04;11.48;;;8.38;;
45198;SDS011;30941;46.422;18.772;2023-04-24T09:37:34;10.07;;;7.10;;
45198;SDS011;30941;46.422;18.772;2023-04-24T09:40:13;6.78;;;5.38;;
45198;SDS011;30941;46.422;18.772;2023-04-24T09:43:00;7.25;;;3.95;;
45198;SDS011;30941;46.422;18.772;2023-04-24T09:45:31;4.45;;;2.45;;
45198;SDS011;30941;46.422;18.772;2023-04-24T09:48:00;3.85;;;2.60;;
45198;SDS011;30941;46.422;18.772;2023-04-24T09:50:26;5.05;;;2.30;;
45198;SDS011;30941;46.422;18.772;2023-04-24T09:52:58;4.60;;;2.55;;
45198;SDS011;30941;46.422;18.772;2023-04-24T09:55:24;4.78;;;2.95;;
45198;SDS011;30941;46.422;18.772;2023-04-24T09:57:54;3.70;;;2.35;;
45198;SDS011;30941;46.422;18.772;2023-04-24T10:00:22;3.90;;;2.55;;
45198;SDS011;30941;46.422;18.772;2023-04-24T10:02:55;3.20;;;2.55;;
45198;SDS011;30941;46.422;18.772;2023-04-24T10:05:28;4.30;;;2.85;;
45198;SDS011;30941;46.422;18.772;2023-04-24T10:08:00;4.85;;;3.00;;
45198;SDS011;30941;46.422;18.772;2023-04-24T10:10:33;4.65;;;3.08;;
45198;SDS011;30941;46.422;18.772;2023-04-24T10:13:00;4.97;;;3.30;;
45198;SDS011;30941;46.422;18.772;2023-04-24T10:15:26;5.75;;;3.28;;
45198;SDS011;30941;46.422;18.772;2023-04-24T10:17:51;6.30;;;3.20;;
45198;SDS011;30941;46.422;18.772;2023-04-24T10:20:24;4.53;;;3.10;;
45198;SDS011;30941;46.422;18.772;2023-04-24T10:22:54;4.72;;;3.40;;
45198;SDS011;30941;46.422;18.772;2023-04-24T10:25:22;4.88;;;3.33;;
45198;SDS011;30941;46.422;18.772;2023-04-24T10:27:49;4.53;;;3.00;;
45198;SDS011;30941;46.422;18.772;2023-04-24T10:30:15;4.05;;;3.13;;
45198;SDS011;30941;46.422;18.772;2023-04-24T10:32:41;5.57;;;3.58;;
45198;SDS011;30941;46.422;18.772;2023-04-24T10:35:07;5.35;;;3.50;;
45198;SDS011;30941;46.422;18.772;2023-04-24T10:37:37;4.95;;;3.08;;
45198;SDS011;30941;46.422;18.772;2023-04-24T10:40:05;4.35;;;3.30;;
45198;SDS011;30941;46.422;18.772;2023-04-24T10:42:32;4.45;;;3.45;;
45198;SDS011;30941;46.422;18.772;2023-04-24T10:44:58;7.43;;;3.70;;
45198;SDS011;30941;46.422;18.772;2023-04-24T10:47:23;5.50;;;3.40;;
45198;SDS011;30941;46.422;18.772;2023-04-24T10:49:50;6.45;;;3.22;;
45198;SDS011;30941;46.422;18.772;2023-04-24T10:52:15;4.50;;;3.22;;
45198;SDS011;30941;46.422;18.772;2023-04-24T10:54:42;5.40;;;3.20;;
45198;SDS011;30941;46.422;18.772;2023-04-24T10:59:48;5.72;;;3.40;;
45198;SDS011;30941;46.422;18.772;2023-04-24T11:02:37;5.28;;;3.33;;
45198;SDS011;30941;46.422;18.772;2023-04-24T11:05:03;4.82;;;3.50;;
45198;SDS011;30941;46.422;18.772;2023-04-24T11:07:29;5.03;;;3.28;;
45198;SDS011;30941;46.422;18.772;2023-04-24T11:09:58;8.63;;;3.88;;
45198;SDS011;30941;46.422;18.772;2023-04-24T11:12:23;5.68;;;3.45;;
45198;SDS011;30941;46.422;18.772;2023-04-24T11:17:34;9.35;;;3.83;;
45198;SDS011;30941;46.422;18.772;2023-04-24T11:20:03;6.55;;;3.92;;
45198;SDS011;30941;46.422;18.772;2023-04-24T11:22:32;5.43;;;3.70;;
45198;SDS011;30941;46.422;18.772;2023-04-24T11:25:00;5.25;;;3.72;;
45198;SDS011;30941;46.422;18.772;2023-04-24T11:27:32;6.93;;;4.53;;
45198;SDS011;30941;46.422;18.772;2023-04-24T11:30:11;9.63;;;5.07;;
45198;SDS011;30941;46.422;18.772;2023-04-24T11:32:37;5.35;;;4.55;;
45198;SDS011;30941;46.422;18.772;2023-04-24T11:35:16;9.60;;;5.15;;
45198;SDS011;30941;46.422;18.772;2023-04-24T11:37:45;6.85;;;4.53;;
45198;SDS011;30941;46.422;18.772;2023-04-24T11:40:11;7.50;;;4.50;;
45198;SDS011;30941;46.422;18.772;2023-04-24T11:42:38;7.72;;;4.80;;
45198;SDS011;30941;46.422;18.772;2023-04-24T11:47:34;12.45;;;4.28;;
45198;SDS011;30941;46.422;18.772;2023-04-24T11:50:00;7.30;;;5.55;;
45198;SDS011;30941;46.422;18.772;2023-04-24T11:52:26;6.35;;;5.00;;
45198;SDS011;30941;46.422;18.772;2023-04-24T11:54:52;7.57;;;6.07;;
45198;SDS011;30941;46.422;18.772;2023-04-24T11:57:21;8.48;;;5.55;;
45198;SDS011;30941;46.422;18.772;2023-04-24T11:59:48;9.25;;;5.75;;
45198;SDS011;30941;46.422;18.772;2023-04-24T12:02:23;7.88;;;5.80;;
45198;SDS011;30941;46.422;18.772;2023-04-24T12:04:50;11.50;;;5.50;;
45198;SDS011;30941;46.422;18.772;2023-04-24T12:07:15;5.45;;;4.28;;
45198;SDS011;30941;46.422;18.772;2023-04-24T12:09:42;5.38;;;4.13;;
45198;SDS011;30941;46.422;18.772;2023-04-24T12:12:08;5.85;;;3.67;;
45198;SDS011;30941;46.422;18.772;2023-04-24T12:14:41;6.28;;;3.70;;
45198;SDS011;30941;46.422;18.772;2023-04-24T12:17:08;7.03;;;4.63;;
45198;SDS011;30941;46.422;18.772;2023-04-24T12:19:33;6.97;;;4.28;;
45198;SDS011;30941;46.422;18.772;2023-04-24T12:21:59;5.47;;;4.30;;
45198;SDS011;30941;46.422;18.772;2023-04-24T12:24:29;8.13;;;4.63;;
45198;SDS011;30941;46.422;18.772;2023-04-24T12:26:55;6.30;;;4.30;;
45198;SDS011;30941;46.422;18.772;2023-04-24T12:29:22;8.13;;;4.10;;
45198;SDS011;30941;46.422;18.772;2023-04-24T12:31:47;6.70;;;4.25;;
45198;SDS011;30941;46.422;18.772;2023-04-24T12:34:19;5.38;;;4.25;;
45198;SDS011;30941;46.422;18.772;2023-04-24T12:36:46;8.65;;;4.22;;
45198;SDS011;30941;46.422;18.772;2023-04-24T12:39:15;7.07;;;4.15;;
45198;SDS011;30941;46.422;18.772;2023-04-24T12:41:50;9.88;;;4.68;;
45198;SDS011;30941;46.422;18.772;2023-04-24T12:44:28;6.15;;;4.13;;
45198;SDS011;30941;46.422;18.772;2023-04-24T12:46:54;6.68;;;4.55;;
45198;SDS011;30941;46.422;18.772;2023-04-24T12:49:20;5.95;;;4.10;;
45198;SDS011;30941;46.422;18.772;2023-04-24T12:51:45;6.90;;;4.18;;
45198;SDS011;30941;46.422;18.772;2023-04-24T12:54:10;7.90;;;4.38;;
45198;SDS011;30941;46.422;18.772;2023-04-24T12:56:36;10.82;;;4.30;;
45198;SDS011;30941;46.422;18.772;2023-04-24T12:59:04;8.48;;;4.25;;
45198;SDS011;30941;46.422;18.772;2023-04-24T13:01:30;5.88;;;4.30;;
45198;SDS011;30941;46.422;18.772;2023-04-24T13:03:55;6.10;;;4.15;;
45198;SDS011;30941;46.422;18.772;2023-04-24T13:06:21;6.28;;;3.78;;
45198;SDS011;30941;46.422;18.772;2023-04-24T13:08:46;7.47;;;3.63;;
45198;SDS011;30941;46.422;18.772;2023-04-24T13:11:12;7.28;;;3.85;;
45198;SDS011;30941;46.422;18.772;2023-04-24T13:13:38;7.28;;;4.10;;
45198;SDS011;30941;46.422;18.772;2023-04-24T13:16:03;6.10;;;3.88;;
45198;SDS011;30941;46.422;18.772;2023-04-24T13:18:29;5.68;;;3.42;;
45198;SDS011;30941;46.422;18.772;2023-04-24T13:20:55;6.65;;;4.03;;
45198;SDS011;30941;46.422;18.772;2023-04-24T13:23:20;7.40;;;4.65;;
45198;SDS011;30941;46.422;18.772;2023-04-24T13:25:46;11.52;;;5.53;;
45198;SDS011;30941;46.422;18.772;2023-04-24T13:28:12;7.97;;;4.93;;
45198;SDS011;30941;46.422;18.772;2023-04-24T13:30:37;4.70;;;4.20;;
45198;SDS011;30941;46.422;18.772;2023-04-24T13:33:03;5.70;;;3.70;;
45198;SDS011;30941;46.422;18.772;2023-04-24T13:35:28;6.88;;;3.50;;
45198;SDS011;30941;46.422;18.772;2023-04-24T13:37:54;6.95;;;3.50;;
45198;SDS011;30941;46.422;18.772;2023-04-24T13:40:19;7.50;;;3.90;;
45198;SDS011;30941;46.422;18.772;2023-04-24T13:42:45;6.22;;;3.55;;
45198;SDS011;30941;46.422;18.772;2023-04-24T13:45:10;5.57;;;3.97;;
45198;SDS011;30941;46.422;18.772;2023-04-24T13:47:36;10.55;;;4.50;;
45198;SDS011;30941;46.422;18.772;2023-04-24T13:50:01;6.22;;;4.03;;
45198;SDS011;30941;46.422;18.772;2023-04-24T13:52:27;7.20;;;4.18;;
45198;SDS011;30941;46.422;18.772;2023-04-24T13:54:52;5.65;;;4.18;;
45198;SDS011;30941;46.422;18.772;2023-04-24T13:57:17;6.35;;;4.20;;
45198;SDS011;30941;46.422;18.772;2023-04-24T13:59:43;6.97;;;4.60;;
45198;SDS011;30941;46.422;18.772;2023-04-24T14:02:08;8.75;;;5.20;;
45198;SDS011;30941;46.422;18.772;2023-04-24T14:04:34;4.82;;;3.90;;
45198;SDS011;30941;46.422;18.772;2023-04-24T14:06:59;9.45;;;4.75;;
45198;SDS011;30941;46.422;18.772;2023-04-24T14:09:25;9.60;;;4.80;;
45198;SDS011;30941;46.422;18.772;2023-04-24T14:11:51;7.57;;;4.60;;
45198;SDS011;30941;46.422;18.772;2023-04-24T14:14:17;8.30;;;4.88;;
45198;SDS011;30941;46.422;18.772;2023-04-24T14:16:42;5.97;;;4.15;;
45198;SDS011;30941;46.422;18.772;2023-04-24T14:19:07;7.13;;;4.38;;
45198;SDS011;30941;46.422;18.772;2023-04-24T14:21:33;5.40;;;4.07;;